createdAt,value
2023-02-04T00:01:56.900Z,17.80
2023-02-04T00:04:08.600Z,14.30
2023-02-04T00:06:20.275Z,13.70
2023-02-04T00:08:32.267Z,15.90
2023-02-04T00:10:44.116Z,15.60
2023-02-04T00:12:56.052Z,13.90
2023-02-04T00:15:08.194Z,11.20
2023-02-04T00:17:19.837Z,16.50
2023-02-04T00:19:31.421Z,15.10
2023-02-04T00:21:43.522Z,14.20
2023-02-04T00:23:56.631Z,14.30
2023-02-04T00:26:08.429Z,13.10
2023-02-04T00:28:20.118Z,14.20
2023-02-04T00:30:33.700Z,11.10
2023-02-04T00:32:45.861Z,12.40
2023-02-04T00:34:57.666Z,12.30
2023-02-04T00:37:10.760Z,11.20
2023-02-04T00:39:23.690Z,11.90
2023-02-04T00:41:35.775Z,9.50
2023-02-04T00:43:47.975Z,10.30
2023-02-04T00:46:00.360Z,7.60
2023-02-04T00:48:12.477Z,8.80
2023-02-04T00:50:25.289Z,9.10
2023-02-04T00:52:37.389Z,9.10
2023-02-04T00:54:49.380Z,8.90
2023-02-04T00:57:01.382Z,9.90
2023-02-04T00:59:13.379Z,7.70
2023-02-04T01:01:25.982Z,6.60
2023-02-04T01:03:37.770Z,5.60
2023-02-04T01:05:49.664Z,4.50
2023-02-04T01:08:01.451Z,5.00
2023-02-04T01:10:13.453Z,5.00
2023-02-04T01:12:27.611Z,5.20
2023-02-04T01:14:39.590Z,4.40
2023-02-04T01:16:51.203Z,4.20
2023-02-04T01:19:03.069Z,4.70
2023-02-04T01:21:14.760Z,5.80
2023-02-04T01:23:27.774Z,6.80
2023-02-04T01:25:39.464Z,6.90
2023-02-04T01:27:51.734Z,4.90
2023-02-04T01:30:06.114Z,6.20
2023-02-04T01:32:18.622Z,5.90
2023-02-04T01:34:31.844Z,7.60
2023-02-04T01:36:43.639Z,6.30
2023-02-04T01:38:55.833Z,6.40
2023-02-04T01:41:07.828Z,5.60
2023-02-04T01:43:22.586Z,6.90
2023-02-04T01:45:35.770Z,7.60
2023-02-04T01:47:48.122Z,6.50
2023-02-04T01:50:00.824Z,7.20
2023-02-04T01:52:12.927Z,8.30
2023-02-04T01:54:26.762Z,8.00
2023-02-04T01:56:43.091Z,5.70
2023-02-04T01:58:57.507Z,5.80
2023-02-04T02:01:33.680Z,7.50
2023-02-04T02:03:45.560Z,6.10
2023-02-04T02:05:57.778Z,7.20
2023-02-04T02:08:12.731Z,5.80
2023-02-04T02:10:25.063Z,5.60
2023-02-04T02:12:37.533Z,7.10
2023-02-04T02:14:49.527Z,6.10
2023-02-04T02:17:01.163Z,7.20
2023-02-04T02:19:20.189Z,6.10
2023-02-04T02:22:07.198Z,7.40
2023-02-04T02:24:32.597Z,6.90
2023-02-04T02:26:44.387Z,8.70
2023-02-04T02:28:56.382Z,8.10
2023-02-04T02:31:09.100Z,8.00
2023-02-04T02:33:22.089Z,9.90
2023-02-04T02:35:35.134Z,9.50
2023-02-04T02:37:47.124Z,10.00
2023-02-04T02:39:58.962Z,10.10
2023-02-04T02:42:16.908Z,10.40
2023-02-04T02:44:30.072Z,10.30
2023-02-04T02:46:42.577Z,10.20
2023-02-04T02:48:54.892Z,10.70
2023-02-04T02:51:06.871Z,11.20
2023-02-04T02:53:20.783Z,9.90
2023-02-04T02:55:33.420Z,12.20
2023-02-04T02:57:49.723Z,10.00
2023-02-04T03:00:01.811Z,11.80
2023-02-04T03:02:18.135Z,12.70
2023-02-04T03:04:34.918Z,9.30
2023-02-04T03:06:48.138Z,10.60
2023-02-04T03:09:00.280Z,10.30
2023-02-04T03:11:12.235Z,11.00
2023-02-04T03:13:24.943Z,10.70
2023-02-04T03:15:37.571Z,10.70
2023-02-04T03:17:56.422Z,8.50
2023-02-04T03:20:09.950Z,8.10
2023-02-04T03:22:21.934Z,9.00
2023-02-04T03:24:37.104Z,9.50
2023-02-04T03:26:49.166Z,8.70
2023-02-04T03:29:01.096Z,7.80
2023-02-04T03:31:13.390Z,7.80
2023-02-04T03:33:31.523Z,7.30
2023-02-04T03:35:42.973Z,7.60
2023-02-04T03:37:55.327Z,6.60
2023-02-04T03:40:07.636Z,7.70
2023-02-04T03:42:19.631Z,8.80
2023-02-04T03:44:31.206Z,7.90
2023-02-04T03:46:42.991Z,7.60
2023-02-04T03:48:55.092Z,6.70
2023-02-04T03:51:07.503Z,7.00
2023-02-04T03:53:19.591Z,8.40
2023-02-04T03:55:33.033Z,7.90
2023-02-04T03:57:44.708Z,8.30
2023-02-04T03:59:56.505Z,8.40
2023-02-04T04:02:08.686Z,7.40
2023-02-04T04:04:20.491Z,8.00
2023-02-04T04:06:32.177Z,8.40
2023-02-04T04:08:44.074Z,7.60
2023-02-04T04:10:57.084Z,8.70
2023-02-04T04:13:08.772Z,8.20
2023-02-04T04:15:20.564Z,8.60
2023-02-04T04:17:32.661Z,8.90
2023-02-04T04:19:45.167Z,9.50
2023-02-04T04:21:57.882Z,8.40
2023-02-04T04:24:10.026Z,8.60
2023-02-04T04:26:21.971Z,8.70
2023-02-04T04:28:34.169Z,9.10
2023-02-04T04:30:45.988Z,8.80
2023-02-04T04:32:58.053Z,12.20
2023-02-04T04:35:10.249Z,11.10
2023-02-04T04:37:21.940Z,10.40
2023-02-04T04:39:33.729Z,10.00
2023-02-04T04:41:45.413Z,9.70
2023-02-04T04:43:57.001Z,9.10
2023-02-04T04:46:08.889Z,9.30
2023-02-04T04:48:21.702Z,10.00
2023-02-04T04:50:33.678Z,10.30
2023-02-04T04:52:46.306Z,8.30
2023-02-04T04:54:58.015Z,8.40
2023-02-04T04:57:10.294Z,7.20
2023-02-04T04:59:21.983Z,8.50
2023-02-04T05:01:33.999Z,9.30
2023-02-04T05:03:45.563Z,8.40
2023-02-04T05:05:57.458Z,8.50
2023-02-04T05:08:17.146Z,9.60
2023-02-04T05:10:28.835Z,9.40
2023-02-04T05:12:40.920Z,10.10
2023-02-04T05:14:52.812Z,11.20
2023-02-04T05:17:04.704Z,10.40
2023-02-04T05:19:16.700Z,9.50
2023-02-04T05:21:28.393Z,15.20
2023-02-04T05:23:40.515Z,15.60
2023-02-04T05:25:52.684Z,14.70
2023-02-04T05:28:05.206Z,12.10
2023-02-04T05:30:17.389Z,11.00
2023-02-04T05:32:29.594Z,13.60
2023-02-04T05:34:41.408Z,12.90
2023-02-04T05:36:53.275Z,13.30
2023-02-04T05:39:04.959Z,14.10
2023-02-04T05:41:16.544Z,13.70
2023-02-04T05:43:28.230Z,16.40
2023-02-04T05:45:40.144Z,16.50
2023-02-04T05:47:53.140Z,15.50
2023-02-04T05:50:05.383Z,12.30
2023-02-04T05:52:17.027Z,11.10
2023-02-04T05:54:28.614Z,9.80
2023-02-04T05:56:40.402Z,8.40
2023-02-04T05:58:52.398Z,9.20
2023-02-04T06:01:05.176Z,10.90
2023-02-04T06:03:19.681Z,17.40
2023-02-04T06:05:32.887Z,13.50
2023-02-04T06:07:45.085Z,12.70
2023-02-04T06:09:57.242Z,16.10
2023-02-04T06:12:10.816Z,18.70
2023-02-04T06:14:23.322Z,21.20
2023-02-04T06:16:35.381Z,18.80
2023-02-04T06:18:47.516Z,15.10
2023-02-04T06:20:59.510Z,17.10
2023-02-04T06:23:11.609Z,21.60
2023-02-04T06:25:23.961Z,16.80
2023-02-04T06:27:35.904Z,15.10
2023-02-04T06:29:47.592Z,12.20
2023-02-04T06:31:59.374Z,13.20
2023-02-04T06:34:11.652Z,15.70
2023-02-04T06:36:23.377Z,22.90
2023-02-04T06:38:35.266Z,30.40
2023-02-04T06:40:49.548Z,21.00
2023-02-04T06:43:02.011Z,22.60
2023-02-04T06:45:14.423Z,17.30
2023-02-04T06:47:26.113Z,17.90
2023-02-04T06:49:38.413Z,17.90
2023-02-04T06:51:50.713Z,13.70
2023-02-04T06:54:02.400Z,12.70
2023-02-04T06:56:13.907Z,13.10
2023-02-04T06:58:25.991Z,12.70
2023-02-04T07:00:37.668Z,10.30
2023-02-04T07:02:49.516Z,12.10
2023-02-04T07:05:01.862Z,13.40
2023-02-04T07:07:14.167Z,11.30
2023-02-04T07:09:25.954Z,11.60
2023-02-04T07:11:38.154Z,10.60
2023-02-04T07:13:50.465Z,11.90
2023-02-04T07:16:03.064Z,9.00
2023-02-04T07:18:15.278Z,10.50
2023-02-04T07:20:26.952Z,9.50
2023-02-04T07:22:39.358Z,10.50
2023-02-04T07:24:51.357Z,12.50
2023-02-04T07:27:03.143Z,10.40
2023-02-04T07:29:20.753Z,10.10
2023-02-04T07:31:36.775Z,9.90
2023-02-04T07:33:48.955Z,8.60
2023-02-04T07:36:01.155Z,11.40
2023-02-04T07:38:13.599Z,11.40
2023-02-04T07:40:25.552Z,14.80
2023-02-04T07:42:37.134Z,17.90
2023-02-04T07:44:53.223Z,40.40
2023-02-04T07:47:05.422Z,20.20
2023-02-04T07:49:17.619Z,9.40
2023-02-04T07:51:29.510Z,10.00
2023-02-04T07:53:41.403Z,84.20
2023-02-04T07:55:53.196Z,71.00
2023-02-04T07:58:05.092Z,42.80
2023-02-04T08:00:17.896Z,37.40
2023-02-04T08:02:29.687Z,26.60
2023-02-04T08:04:41.886Z,23.60
2023-02-04T08:06:53.675Z,27.50
2023-02-04T08:09:05.879Z,18.80
2023-02-04T08:11:18.071Z,21.80
2023-02-04T08:13:29.869Z,17.30
2023-02-04T08:15:41.931Z,17.50
2023-02-04T08:17:53.850Z,11.90
2023-02-04T08:20:05.952Z,13.20
2023-02-04T08:22:17.838Z,10.70
2023-02-04T08:24:29.834Z,14.60
2023-02-04T08:26:42.954Z,15.60
2023-02-04T08:28:54.743Z,14.50
2023-02-04T08:31:07.494Z,15.10
2023-02-04T08:33:20.165Z,14.20
2023-02-04T08:35:32.270Z,20.70
2023-02-04T08:37:43.847Z,20.90
2023-02-04T08:39:56.454Z,21.10
2023-02-04T08:42:08.250Z,13.90
2023-02-04T08:44:19.790Z,15.50
2023-02-04T08:46:32.495Z,17.60
2023-02-04T08:48:44.606Z,15.50
2023-02-04T08:50:56.552Z,17.20
2023-02-04T08:53:08.236Z,16.70
2023-02-04T08:55:19.940Z,16.30
2023-02-04T08:57:31.723Z,16.10
2023-02-04T08:59:43.412Z,13.50
2023-02-04T09:01:55.195Z,13.00
2023-02-04T09:04:07.810Z,14.70
2023-02-04T09:06:19.909Z,14.00
2023-02-04T09:08:31.802Z,11.10
2023-02-04T09:10:43.901Z,12.10
2023-02-04T09:12:56.366Z,13.10
2023-02-04T09:15:11.037Z,10.30
2023-02-04T09:17:24.514Z,12.80
2023-02-04T09:19:38.564Z,10.00
2023-02-04T09:21:54.125Z,11.40
2023-02-04T09:24:05.908Z,9.10
2023-02-04T09:26:17.698Z,9.30
2023-02-04T09:28:30.538Z,10.30
2023-02-04T09:30:45.882Z,9.70
2023-02-04T09:32:58.670Z,11.60
2023-02-04T09:35:11.580Z,25.50
2023-02-04T09:37:27.446Z,11.00
2023-02-04T09:39:40.130Z,8.90
2023-02-04T09:41:54.447Z,10.30
2023-02-04T09:44:15.894Z,7.50
2023-02-04T09:46:29.633Z,7.40
2023-02-04T09:48:42.666Z,6.70
2023-02-04T09:51:07.821Z,8.40
2023-02-04T09:53:24.578Z,9.30
2023-02-04T09:55:44.661Z,6.80
2023-02-04T09:57:57.969Z,13.60
2023-02-04T10:00:16.939Z,18.30
2023-02-04T10:02:28.688Z,19.00
2023-02-04T10:04:40.582Z,7.20
2023-02-04T10:06:59.469Z,15.60
2023-02-04T10:09:14.739Z,16.80
2023-02-04T10:11:28.235Z,27.50
2023-02-04T10:13:45.345Z,11.20
2023-02-04T10:15:57.348Z,12.90
2023-02-04T10:18:09.438Z,17.60
2023-02-04T10:20:23.963Z,20.70
2023-02-04T10:22:37.111Z,47.60
2023-02-04T10:24:49.209Z,15.80
2023-02-04T10:27:09.408Z,28.80
2023-02-04T10:29:26.006Z,26.60
2023-02-04T10:31:44.053Z,42.90
2023-02-04T10:34:05.984Z,29.40
2023-02-04T10:36:18.064Z,23.30
2023-02-04T10:38:30.163Z,15.70
2023-02-04T10:40:42.974Z,13.90
2023-02-04T10:42:55.612Z,12.30
2023-02-04T10:45:23.144Z,12.40
2023-02-04T10:47:36.116Z,9.30
2023-02-04T10:50:00.582Z,7.10
2023-02-04T10:52:19.692Z,18.40
2023-02-04T10:54:39.035Z,10.70
2023-02-04T10:56:51.075Z,12.90
2023-02-04T10:59:02.886Z,9.80
2023-02-04T11:01:17.277Z,8.90
2023-02-04T11:03:31.134Z,10.70
2023-02-04T11:05:42.638Z,9.50
2023-02-04T11:07:54.529Z,8.90
2023-02-04T11:10:12.261Z,7.90
2023-02-04T11:12:41.459Z,10.90
2023-02-04T11:14:58.582Z,9.40
2023-02-04T11:17:20.943Z,8.10
2023-02-04T11:19:38.642Z,7.90
2023-02-04T11:21:50.587Z,12.70
2023-02-04T11:24:11.649Z,10.00
2023-02-04T11:26:44.762Z,7.50
2023-02-04T11:29:10.014Z,17.90
2023-02-04T11:31:22.659Z,10.90
2023-02-04T11:33:41.513Z,7.90
2023-02-04T11:36:05.443Z,11.00
2023-02-04T11:38:27.301Z,15.10
2023-02-04T11:40:40.213Z,14.90
2023-02-04T11:42:58.053Z,22.90
2023-02-04T11:45:35.081Z,27.70
2023-02-04T11:47:47.840Z,18.50
2023-02-04T11:50:03.138Z,19.90
2023-02-04T11:52:15.022Z,21.10
2023-02-04T11:54:26.897Z,33.10
2023-02-04T11:56:39.094Z,22.00
2023-02-04T11:58:51.189Z,11.90
2023-02-04T12:01:03.296Z,14.10
2023-02-04T12:03:34.577Z,7.80
2023-02-04T12:05:50.422Z,9.80
2023-02-04T12:08:13.476Z,10.30
2023-02-04T12:10:27.088Z,17.20
2023-02-04T12:12:45.391Z,12.50
2023-02-04T12:15:02.070Z,8.20
2023-02-04T12:17:20.768Z,7.80
2023-02-04T12:19:32.804Z,9.10
2023-02-04T12:21:44.582Z,7.10
2023-02-04T12:23:56.281Z,9.30
2023-02-04T12:26:08.649Z,12.30
2023-02-04T12:28:20.615Z,12.90
2023-02-04T12:30:32.673Z,8.30
2023-02-04T12:32:52.337Z,12.60
2023-02-04T12:35:06.236Z,8.50
2023-02-04T12:37:17.758Z,17.90
2023-02-04T12:39:29.444Z,12.20
2023-02-04T12:41:42.041Z,19.00
2023-02-04T12:43:55.845Z,9.20
2023-02-04T12:46:08.165Z,16.00
2023-02-04T12:48:20.584Z,14.50
2023-02-04T12:50:32.488Z,32.50
2023-02-04T12:52:44.184Z,21.30
2023-02-04T12:54:57.125Z,19.00
2023-02-04T12:57:12.241Z,16.00
2023-02-04T12:59:26.634Z,23.00
2023-02-04T13:01:40.141Z,23.40
2023-02-04T13:03:53.114Z,22.60
2023-02-04T13:06:07.195Z,21.00
2023-02-04T13:08:19.622Z,23.50
2023-02-04T13:10:32.754Z,16.20
2023-02-04T13:12:45.958Z,22.60
2023-02-04T13:14:58.792Z,18.70
2023-02-04T13:17:11.885Z,14.10
2023-02-04T13:19:24.419Z,15.00
2023-02-04T13:21:36.490Z,7.10
2023-02-04T13:23:48.592Z,9.50
2023-02-04T13:26:00.892Z,14.50
2023-02-04T13:28:13.047Z,11.20
2023-02-04T13:30:26.179Z,14.60
2023-02-04T13:32:38.946Z,20.40
2023-02-04T13:34:51.453Z,26.10
2023-02-04T13:37:04.369Z,13.10
2023-02-04T13:39:17.303Z,18.70
2023-02-04T13:41:29.772Z,13.40
2023-02-04T13:43:43.008Z,12.60
2023-02-04T13:45:55.484Z,27.30
2023-02-04T13:48:07.851Z,24.00
2023-02-04T13:50:21.144Z,17.40
2023-02-04T13:52:35.126Z,17.00
2023-02-04T13:54:47.598Z,16.60
2023-02-04T13:57:00.768Z,30.30
2023-02-04T13:59:14.639Z,46.70
2023-02-04T14:01:26.652Z,26.60
2023-02-04T14:03:40.238Z,50.10
2023-02-04T14:05:54.337Z,63.70
2023-02-04T14:08:07.246Z,40.80
2023-02-04T14:10:22.733Z,49.40
2023-02-04T14:12:36.030Z,46.20
2023-02-04T14:14:48.869Z,27.40
2023-02-04T14:17:01.282Z,19.60
2023-02-04T14:19:14.370Z,24.10
2023-02-04T14:21:28.121Z,16.90
2023-02-04T14:23:42.064Z,25.30
2023-02-04T14:25:54.508Z,27.50
2023-02-04T14:28:07.190Z,17.60
2023-02-04T14:30:22.984Z,16.10
2023-02-04T14:32:35.138Z,20.90
2023-02-04T14:34:47.492Z,22.40
2023-02-04T14:37:01.291Z,21.60
2023-02-04T14:39:14.611Z,16.90
2023-02-04T14:41:30.652Z,17.00
2023-02-04T14:43:44.250Z,14.30
2023-02-04T14:45:57.093Z,19.70
2023-02-04T14:48:10.808Z,21.10
2023-02-04T14:50:27.400Z,22.20
2023-02-04T14:52:40.236Z,16.50
2023-02-04T14:54:53.870Z,14.40
2023-02-04T14:57:11.485Z,16.70
2023-02-04T14:59:24.108Z,23.80
2023-02-04T15:01:36.625Z,18.40
2023-02-04T15:03:50.996Z,18.40
2023-02-04T15:06:04.044Z,19.20
2023-02-04T15:08:16.482Z,22.40
2023-02-04T15:10:29.379Z,23.10
2023-02-04T15:12:41.638Z,29.00
2023-02-04T15:14:53.903Z,32.20
2023-02-04T15:17:06.653Z,35.10
2023-02-04T15:19:21.121Z,30.10
2023-02-04T15:21:34.352Z,40.50
2023-02-04T15:23:54.850Z,34.80
2023-02-04T15:26:09.927Z,26.00
2023-02-04T15:28:22.579Z,21.40
2023-02-04T15:30:35.709Z,17.00
2023-02-04T15:32:48.571Z,17.50
2023-02-04T15:35:01.112Z,16.80
2023-02-04T15:37:14.188Z,14.90
2023-02-04T15:39:27.711Z,20.90
2023-02-04T15:41:39.914Z,24.90
2023-02-04T15:43:51.628Z,23.90
2023-02-04T15:46:04.385Z,26.40
2023-02-04T15:48:16.921Z,22.10
2023-02-04T15:50:31.405Z,18.30
2023-02-04T15:52:43.877Z,30.30
2023-02-04T15:54:56.395Z,30.90
2023-02-04T15:57:08.384Z,32.10
2023-02-04T15:59:20.708Z,40.50
2023-02-04T16:01:32.534Z,44.50
2023-02-04T16:03:46.114Z,60.00
2023-02-04T16:05:58.116Z,45.60
2023-02-04T16:08:11.029Z,34.30
2023-02-04T16:10:23.121Z,29.90
2023-02-04T16:12:35.013Z,27.30
2023-02-04T16:14:46.562Z,32.60
2023-02-04T16:16:58.390Z,33.20
2023-02-04T16:19:10.018Z,42.60
2023-02-04T16:21:22.594Z,77.70
2023-02-04T16:23:34.616Z,57.40
2023-02-04T16:25:47.090Z,71.60
2023-02-04T16:27:59.817Z,51.80
2023-02-04T16:30:12.963Z,41.80
2023-02-04T16:32:25.161Z,36.20
2023-02-04T16:34:36.959Z,38.80
2023-02-04T16:36:49.515Z,33.90
2023-02-04T16:39:05.307Z,33.70
2023-02-04T16:41:18.005Z,27.30
2023-02-04T16:43:29.798Z,25.80
2023-02-04T16:45:41.557Z,44.50
2023-02-04T16:47:53.273Z,30.40
2023-02-04T16:50:10.068Z,30.80
2023-02-04T16:52:22.183Z,23.00
2023-02-04T16:54:35.201Z,25.40
2023-02-04T16:56:48.320Z,32.60
2023-02-04T16:59:04.032Z,26.80
2023-02-04T17:01:19.524Z,25.90
2023-02-04T17:03:32.082Z,25.10
2023-02-04T17:05:44.588Z,20.70
2023-02-04T17:07:58.733Z,19.00
2023-02-04T17:10:10.939Z,18.30
2023-02-04T17:12:23.133Z,15.60
2023-02-04T17:14:39.531Z,15.90
2023-02-04T17:16:53.077Z,16.60
2023-02-04T17:19:05.925Z,16.60
2023-02-04T17:21:17.976Z,19.00
2023-02-04T17:23:30.946Z,18.30
2023-02-04T17:25:43.805Z,16.80
2023-02-04T17:27:56.952Z,16.20
2023-02-04T17:30:10.202Z,16.30
2023-02-04T17:32:22.043Z,18.80
2023-02-04T17:34:34.044Z,19.90
2023-02-04T17:36:46.241Z,25.30
2023-02-04T17:38:58.745Z,69.20
2023-02-04T17:41:10.258Z,46.40
2023-02-04T17:43:23.051Z,63.20
2023-02-04T17:45:35.781Z,82.30
2023-02-04T17:47:48.055Z,54.20
2023-02-04T17:50:00.289Z,52.40
2023-02-04T17:52:12.662Z,51.20
2023-02-04T17:54:25.065Z,37.00
2023-02-04T17:56:36.761Z,24.30
2023-02-04T17:58:48.747Z,30.70
2023-02-04T18:01:00.959Z,32.30
2023-02-04T18:03:19.507Z,35.20
2023-02-04T18:05:35.493Z,32.30
2023-02-04T18:08:11.252Z,27.50
2023-02-04T18:10:36.283Z,20.40
2023-02-04T18:12:48.844Z,31.00
2023-02-04T18:15:01.454Z,26.70
2023-02-04T18:17:16.211Z,31.20
2023-02-04T18:19:31.206Z,61.60
2023-02-04T18:21:43.589Z,65.40
2023-02-04T18:24:19.756Z,52.80
2023-02-04T18:26:34.041Z,38.70
2023-02-04T18:28:48.607Z,33.30
2023-02-04T18:31:01.376Z,21.70
2023-02-04T18:33:22.005Z,20.60
2023-02-04T18:35:44.390Z,19.70
2023-02-04T18:37:56.406Z,20.60
2023-02-04T18:40:14.059Z,24.40
2023-02-04T18:42:26.928Z,68.90
2023-02-04T18:44:38.717Z,53.80
2023-02-04T18:46:50.411Z,61.10
2023-02-04T18:49:17.464Z,53.20
2023-02-04T18:51:32.703Z,34.20
2023-02-04T18:53:44.510Z,28.60
2023-02-04T18:55:58.860Z,25.40
2023-02-04T18:58:17.045Z,22.70
2023-02-04T19:00:32.553Z,19.40
2023-02-04T19:02:52.495Z,12.40
2023-02-04T19:05:25.766Z,14.10
2023-02-04T19:07:38.055Z,14.40
2023-02-04T19:09:50.149Z,14.80
2023-02-04T19:12:19.664Z,17.70
2023-02-04T19:14:40.869Z,17.90
2023-02-04T19:16:58.512Z,15.10
2023-02-04T19:19:38.657Z,14.90
2023-02-04T19:21:50.671Z,14.70
2023-02-04T19:24:20.045Z,14.80
2023-02-04T19:26:40.008Z,20.90
2023-02-04T19:28:52.565Z,22.90
2023-02-04T19:31:08.686Z,18.60
2023-02-04T19:33:27.442Z,15.80
2023-02-04T19:37:57.819Z,13.90
2023-02-04T19:40:34.777Z,12.00
2023-02-04T19:42:47.630Z,11.30
2023-02-04T19:45:12.662Z,12.50
2023-02-04T19:47:40.891Z,15.60
2023-02-04T19:50:01.594Z,15.90
2023-02-04T19:52:30.346Z,15.80
2023-02-04T19:54:43.403Z,16.60
2023-02-04T19:56:55.599Z,19.60
2023-02-04T19:59:33.977Z,16.50
2023-02-04T20:01:46.010Z,16.80
2023-02-04T20:03:59.740Z,16.50
2023-02-04T20:06:28.701Z,19.60
2023-02-04T20:08:44.625Z,22.70
2023-02-04T20:10:57.540Z,21.70
2023-02-04T20:13:18.342Z,18.40
2023-02-04T20:15:31.767Z,18.10
2023-02-04T20:17:46.941Z,15.90
2023-02-04T20:20:15.529Z,19.00
2023-02-04T20:22:39.291Z,18.10
2023-02-04T20:24:55.329Z,19.70
2023-02-04T20:27:27.554Z,16.90
2023-02-04T20:29:39.851Z,14.70
2023-02-04T20:31:51.773Z,17.70
2023-02-04T20:34:23.284Z,33.40
2023-02-04T20:36:40.795Z,48.90
2023-02-04T20:39:28.045Z,38.10
2023-02-04T20:41:40.141Z,27.30
2023-02-04T20:43:52.337Z,23.30
2023-02-04T20:46:07.633Z,22.50
2023-02-04T20:48:20.526Z,17.70
2023-02-04T20:50:38.703Z,15.40
2023-02-04T20:52:51.282Z,13.40
2023-02-04T20:55:20.984Z,14.20
2023-02-04T20:57:34.619Z,14.00
2023-02-04T20:59:49.495Z,17.70
2023-02-04T21:02:14.992Z,15.50
2023-02-04T21:04:38.412Z,14.30
2023-02-04T21:06:53.320Z,14.00
2023-02-04T21:09:10.429Z,18.00
2023-02-04T21:11:22.920Z,21.00
2023-02-04T21:13:35.860Z,43.10
2023-02-04T21:15:48.481Z,31.40
2023-02-04T21:18:00.859Z,56.30
2023-02-04T21:20:12.930Z,35.20
2023-02-04T21:22:24.959Z,22.70
2023-02-04T21:24:36.954Z,89.70
2023-02-04T21:26:49.144Z,105.90
2023-02-04T21:29:02.173Z,62.60
2023-02-04T21:31:14.165Z,41.50
2023-02-04T21:33:26.570Z,29.30
2023-02-04T21:35:39.794Z,29.20
2023-02-04T21:37:54.859Z,45.10
2023-02-04T21:40:07.650Z,38.70
2023-02-04T21:42:19.873Z,28.70
2023-02-04T21:44:31.663Z,16.10
2023-02-04T21:46:43.505Z,12.60
2023-02-04T21:48:55.602Z,11.00
2023-02-04T21:51:07.546Z,12.40
2023-02-04T21:53:19.132Z,12.00
2023-02-04T21:55:31.906Z,13.30
2023-02-04T21:57:46.091Z,16.30
2023-02-04T21:59:58.403Z,15.40
2023-02-04T22:02:10.183Z,14.50
2023-02-04T22:04:22.689Z,15.20
2023-02-04T22:06:34.580Z,12.90
2023-02-04T22:08:46.485Z,13.10
2023-02-04T22:10:59.006Z,13.40
2023-02-04T22:13:11.394Z,16.20
2023-02-04T22:15:24.446Z,13.70
2023-02-04T22:17:36.812Z,13.90
2023-02-04T22:19:49.216Z,31.80
2023-02-04T22:22:01.106Z,40.00
2023-02-04T22:24:13.099Z,31.60
2023-02-04T22:26:24.928Z,27.10
2023-02-04T22:28:36.900Z,18.00
2023-02-04T22:30:49.137Z,14.90
2023-02-04T22:33:02.757Z,13.40
2023-02-04T22:35:15.431Z,15.90
2023-02-04T22:37:27.425Z,24.60
2023-02-04T22:39:39.325Z,21.10
2023-02-04T22:41:52.645Z,17.10
2023-02-04T22:44:05.050Z,13.20
2023-02-04T22:46:22.847Z,12.40
2023-02-04T22:48:35.081Z,10.50
2023-02-04T22:50:47.384Z,9.30
2023-02-04T22:52:58.878Z,10.20
2023-02-04T22:55:10.574Z,11.60
2023-02-04T22:57:22.753Z,13.30
2023-02-04T22:59:34.751Z,11.70
2023-02-04T23:01:46.976Z,10.90
2023-02-04T23:03:59.043Z,12.50
2023-02-04T23:06:11.343Z,12.90
2023-02-04T23:08:23.949Z,16.40
2023-02-04T23:10:37.591Z,22.10
2023-02-04T23:12:50.907Z,17.80
2023-02-04T23:15:03.329Z,14.00
2023-02-04T23:17:17.209Z,11.60
2023-02-04T23:19:29.038Z,10.60
2023-02-04T23:21:40.726Z,11.20
2023-02-04T23:23:53.029Z,14.00
2023-02-04T23:26:05.328Z,12.40
2023-02-04T23:28:17.230Z,12.30
2023-02-04T23:30:29.480Z,11.20
2023-02-04T23:32:42.245Z,9.30
2023-02-04T23:34:54.230Z,9.90
2023-02-04T23:37:06.744Z,12.90
2023-02-04T23:39:20.718Z,12.40
2023-02-04T23:41:32.766Z,13.60
2023-02-04T23:43:44.366Z,12.50
2023-02-04T23:46:00.385Z,14.50
2023-02-04T23:48:15.009Z,12.60
2023-02-04T23:50:26.904Z,12.50
2023-02-04T23:52:38.700Z,11.40
2023-02-04T23:54:50.483Z,12.70
2023-02-04T23:57:02.557Z,13.00
2023-02-04T23:59:14.577Z,12.80
